sensor_id;sensor_type;location;lat;lon;timestamp;temperature;humidity
70074;DHT22;57445;51.058;3.698;2022-08-01T00:00:23;21.20;89.40
70074;DHT22;57445;51.058;3.698;2022-08-01T00:02:51;21.30;89.00
70074;DHT22;57445;51.058;3.698;2022-08-01T00:05:18;21.40;88.40
70074;DHT22;57445;51.058;3.698;2022-08-01T00:07:45;21.30;88.80
70074;DHT22;57445;51.058;3.698;2022-08-01T00:10:14;21.30;89.20
70074;DHT22;57445;51.058;3.698;2022-08-01T00:12:42;21.20;89.40
70074;DHT22;57445;51.058;3.698;2022-08-01T00:15:11;21.40;88.80
70074;DHT22;57445;51.058;3.698;2022-08-01T00:17:38;21.10;90.00
70074;DHT22;57445;51.058;3.698;2022-08-01T00:20:09;21.00;90.30
70074;DHT22;57445;51.058;3.698;2022-08-01T00:22:37;21.30;89.90
70074;DHT22;57445;51.058;3.698;2022-08-01T00:25:05;21.10;90.30
70074;DHT22;57445;51.058;3.698;2022-08-01T00:27:33;21.10;90.20
70074;DHT22;57445;51.058;3.698;2022-08-01T00:30:00;21.20;90.20
70074;DHT22;57445;51.058;3.698;2022-08-01T00:32:26;21.10;90.50
70074;DHT22;57445;51.058;3.698;2022-08-01T00:34:53;21.00;90.50
70074;DHT22;57445;51.058;3.698;2022-08-01T00:37:23;21.10;90.40
70074;DHT22;57445;51.058;3.698;2022-08-01T00:39:50;21.10;90.40
70074;DHT22;57445;51.058;3.698;2022-08-01T00:42:16;21.00;90.80
70074;DHT22;57445;51.058;3.698;2022-08-01T00:44:43;20.90;91.20
70074;DHT22;57445;51.058;3.698;2022-08-01T00:47:10;20.80;91.30
70074;DHT22;57445;51.058;3.698;2022-08-01T00:49:37;20.70;91.60
70074;DHT22;57445;51.058;3.698;2022-08-01T00:52:05;20.70;91.60
70074;DHT22;57445;51.058;3.698;2022-08-01T00:54:34;20.70;91.60
70074;DHT22;57445;51.058;3.698;2022-08-01T00:57:01;20.80;91.50
70074;DHT22;57445;51.058;3.698;2022-08-01T00:59:29;20.80;91.60
70074;DHT22;57445;51.058;3.698;2022-08-01T01:01:56;20.80;91.60
70074;DHT22;57445;51.058;3.698;2022-08-01T01:04:23;20.80;91.80
70074;DHT22;57445;51.058;3.698;2022-08-01T01:06:57;20.70;91.80
70074;DHT22;57445;51.058;3.698;2022-08-01T01:09:34;20.80;91.70
70074;DHT22;57445;51.058;3.698;2022-08-01T01:12:12;20.80;91.80
70074;DHT22;57445;51.058;3.698;2022-08-01T01:14:44;20.60;92.30
70074;DHT22;57445;51.058;3.698;2022-08-01T01:17:15;20.50;92.60
70074;DHT22;57445;51.058;3.698;2022-08-01T01:19:47;20.80;92.40
70074;DHT22;57445;51.058;3.698;2022-08-01T01:22:22;20.80;92.20
70074;DHT22;57445;51.058;3.698;2022-08-01T01:25:02;20.80;92.00
70074;DHT22;57445;51.058;3.698;2022-08-01T01:27:42;21.00;92.60
70074;DHT22;57445;51.058;3.698;2022-08-01T01:30:13;20.90;92.20
70074;DHT22;57445;51.058;3.698;2022-08-01T01:32:44;20.80;92.50
70074;DHT22;57445;51.058;3.698;2022-08-01T01:35:17;20.60;93.10
70074;DHT22;57445;51.058;3.698;2022-08-01T01:37:47;20.70;93.10
70074;DHT22;57445;51.058;3.698;2022-08-01T01:40:20;20.50;93.60
70074;DHT22;57445;51.058;3.698;2022-08-01T01:42:49;20.50;93.70
70074;DHT22;57445;51.058;3.698;2022-08-01T01:45:19;20.40;93.70
70074;DHT22;57445;51.058;3.698;2022-08-01T01:47:47;20.10;94.10
70074;DHT22;57445;51.058;3.698;2022-08-01T01:50:15;20.10;94.50
70074;DHT22;57445;51.058;3.698;2022-08-01T01:52:42;20.10;94.40
70074;DHT22;57445;51.058;3.698;2022-08-01T01:55:12;20.10;94.50
70074;DHT22;57445;51.058;3.698;2022-08-01T01:57:41;20.10;94.70
70074;DHT22;57445;51.058;3.698;2022-08-01T02:00:11;20.00;94.50
70074;DHT22;57445;51.058;3.698;2022-08-01T02:02:40;19.90;94.70
70074;DHT22;57445;51.058;3.698;2022-08-01T02:05:10;19.90;94.50
70074;DHT22;57445;51.058;3.698;2022-08-01T02:07:39;19.90;94.40
70074;DHT22;57445;51.058;3.698;2022-08-01T02:10:07;19.90;94.30
70074;DHT22;57445;51.058;3.698;2022-08-01T02:12:37;20.00;93.90
70074;DHT22;57445;51.058;3.698;2022-08-01T02:15:06;20.00;93.80
70074;DHT22;57445;51.058;3.698;2022-08-01T02:17:40;20.10;93.40
70074;DHT22;57445;51.058;3.698;2022-08-01T02:20:09;20.20;93.30
70074;DHT22;57445;51.058;3.698;2022-08-01T02:22:40;20.40;92.80
70074;DHT22;57445;51.058;3.698;2022-08-01T02:25:13;20.30;92.50
70074;DHT22;57445;51.058;3.698;2022-08-01T02:27:47;20.30;92.70
70074;DHT22;57445;51.058;3.698;2022-08-01T02:30:17;20.30;92.80
70074;DHT22;57445;51.058;3.698;2022-08-01T02:32:51;20.40;92.30
70074;DHT22;57445;51.058;3.698;2022-08-01T02:35:21;20.50;92.30
70074;DHT22;57445;51.058;3.698;2022-08-01T02:37:50;20.50;91.90
70074;DHT22;57445;51.058;3.698;2022-08-01T02:40:19;20.40;92.00
70074;DHT22;57445;51.058;3.698;2022-08-01T02:42:49;20.50;91.90
70074;DHT22;57445;51.058;3.698;2022-08-01T02:45:17;20.40;92.00
70074;DHT22;57445;51.058;3.698;2022-08-01T02:47:48;20.60;92.00
70074;DHT22;57445;51.058;3.698;2022-08-01T02:50:16;20.50;91.90
70074;DHT22;57445;51.058;3.698;2022-08-01T02:52:46;20.40;91.90
70074;DHT22;57445;51.058;3.698;2022-08-01T02:55:15;20.50;91.90
70074;DHT22;57445;51.058;3.698;2022-08-01T02:57:44;20.40;92.00
70074;DHT22;57445;51.058;3.698;2022-08-01T03:00:13;20.30;91.90
70074;DHT22;57445;51.058;3.698;2022-08-01T03:02:40;20.20;92.20
70074;DHT22;57445;51.058;3.698;2022-08-01T03:05:10;20.50;92.20
70074;DHT22;57445;51.058;3.698;2022-08-01T03:07:39;20.30;92.10
70074;DHT22;57445;51.058;3.698;2022-08-01T03:10:08;20.30;91.90
70074;DHT22;57445;51.058;3.698;2022-08-01T03:12:37;20.40;92.00
70074;DHT22;57445;51.058;3.698;2022-08-01T03:15:06;20.40;91.70
70074;DHT22;57445;51.058;3.698;2022-08-01T03:17:36;20.30;92.10
70074;DHT22;57445;51.058;3.698;2022-08-01T03:20:05;20.20;92.10
70074;DHT22;57445;51.058;3.698;2022-08-01T03:22:36;20.50;91.90
70074;DHT22;57445;51.058;3.698;2022-08-01T03:25:04;20.60;91.60
70074;DHT22;57445;51.058;3.698;2022-08-01T03:27:33;20.50;91.50
70074;DHT22;57445;51.058;3.698;2022-08-01T03:30:04;20.30;91.90
70074;DHT22;57445;51.058;3.698;2022-08-01T03:32:32;20.30;92.10
70074;DHT22;57445;51.058;3.698;2022-08-01T03:34:59;20.10;92.20
70074;DHT22;57445;51.058;3.698;2022-08-01T03:37:27;20.20;92.10
70074;DHT22;57445;51.058;3.698;2022-08-01T03:39:58;20.30;91.90
70074;DHT22;57445;51.058;3.698;2022-08-01T03:42:31;20.40;91.40
70074;DHT22;57445;51.058;3.698;2022-08-01T03:45:02;20.20;92.20
70074;DHT22;57445;51.058;3.698;2022-08-01T03:47:31;20.10;92.10
70074;DHT22;57445;51.058;3.698;2022-08-01T03:50:01;20.10;92.10
70074;DHT22;57445;51.058;3.698;2022-08-01T03:52:30;20.20;92.10
70074;DHT22;57445;51.058;3.698;2022-08-01T03:55:03;20.10;92.10
70074;DHT22;57445;51.058;3.698;2022-08-01T03:57:33;20.20;92.10
70074;DHT22;57445;51.058;3.698;2022-08-01T04:00:00;20.20;91.90
70074;DHT22;57445;51.058;3.698;2022-08-01T04:02:29;20.20;91.90
70074;DHT22;57445;51.058;3.698;2022-08-01T04:04:56;20.20;92.00
70074;DHT22;57445;51.058;3.698;2022-08-01T04:07:24;20.30;91.80
70074;DHT22;57445;51.058;3.698;2022-08-01T04:09:51;20.10;92.20
70074;DHT22;57445;51.058;3.698;2022-08-01T04:12:20;20.20;92.20
70074;DHT22;57445;51.058;3.698;2022-08-01T04:14:48;20.00;92.20
70074;DHT22;57445;51.058;3.698;2022-08-01T04:17:15;20.00;92.30
70074;DHT22;57445;51.058;3.698;2022-08-01T04:19:43;20.00;92.00
70074;DHT22;57445;51.058;3.698;2022-08-01T04:22:11;19.80;92.60
70074;DHT22;57445;51.058;3.698;2022-08-01T04:24:41;19.80;92.50
70074;DHT22;57445;51.058;3.698;2022-08-01T04:27:13;19.80;92.60
70074;DHT22;57445;51.058;3.698;2022-08-01T04:29:42;19.90;92.40
70074;DHT22;57445;51.058;3.698;2022-08-01T04:32:11;20.00;92.50
70074;DHT22;57445;51.058;3.698;2022-08-01T04:34:44;19.90;92.30
70074;DHT22;57445;51.058;3.698;2022-08-01T04:37:13;20.00;92.20
70074;DHT22;57445;51.058;3.698;2022-08-01T04:39:42;20.00;92.10
70074;DHT22;57445;51.058;3.698;2022-08-01T04:42:11;19.90;92.20
70074;DHT22;57445;51.058;3.698;2022-08-01T04:44:42;19.80;92.20
70074;DHT22;57445;51.058;3.698;2022-08-01T04:47:09;20.00;92.10
70074;DHT22;57445;51.058;3.698;2022-08-01T04:49:37;20.10;91.90
70074;DHT22;57445;51.058;3.698;2022-08-01T04:52:05;20.10;91.80
70074;DHT22;57445;51.058;3.698;2022-08-01T04:54:34;20.00;92.00
70074;DHT22;57445;51.058;3.698;2022-08-01T04:57:04;20.00;92.00
70074;DHT22;57445;51.058;3.698;2022-08-01T04:59:31;20.10;91.90
70074;DHT22;57445;51.058;3.698;2022-08-01T05:02:10;20.10;91.70
70074;DHT22;57445;51.058;3.698;2022-08-01T05:04:39;20.20;91.60
70074;DHT22;57445;51.058;3.698;2022-08-01T05:07:07;20.60;91.20
70074;DHT22;57445;51.058;3.698;2022-08-01T05:09:34;20.30;91.20
70074;DHT22;57445;51.058;3.698;2022-08-01T05:12:03;20.20;91.50
70074;DHT22;57445;51.058;3.698;2022-08-01T05:14:31;20.30;91.40
70074;DHT22;57445;51.058;3.698;2022-08-01T05:16:59;20.30;91.30
70074;DHT22;57445;51.058;3.698;2022-08-01T05:19:30;20.40;91.30
70074;DHT22;57445;51.058;3.698;2022-08-01T05:21:57;20.50;91.00
70074;DHT22;57445;51.058;3.698;2022-08-01T05:24:26;20.70;90.60
70074;DHT22;57445;51.058;3.698;2022-08-01T05:26:54;21.00;89.60
70074;DHT22;57445;51.058;3.698;2022-08-01T05:29:21;21.10;89.30
70074;DHT22;57445;51.058;3.698;2022-08-01T05:31:48;21.10;88.50
70074;DHT22;57445;51.058;3.698;2022-08-01T05:34:14;21.10;88.00
70074;DHT22;57445;51.058;3.698;2022-08-01T05:36:43;21.00;88.70
70074;DHT22;57445;51.058;3.698;2022-08-01T05:39:10;20.70;89.70
70074;DHT22;57445;51.058;3.698;2022-08-01T05:41:37;20.60;90.00
70074;DHT22;57445;51.058;3.698;2022-08-01T05:44:04;20.60;90.10
70074;DHT22;57445;51.058;3.698;2022-08-01T05:46:32;20.70;90.20
70074;DHT22;57445;51.058;3.698;2022-08-01T05:48:59;20.70;90.20
70074;DHT22;57445;51.058;3.698;2022-08-01T05:51:27;20.70;90.10
70074;DHT22;57445;51.058;3.698;2022-08-01T05:53:56;20.90;89.90
70074;DHT22;57445;51.058;3.698;2022-08-01T05:56:23;20.70;89.70
70074;DHT22;57445;51.058;3.698;2022-08-01T05:58:51;20.90;89.40
70074;DHT22;57445;51.058;3.698;2022-08-01T06:01:18;21.10;88.40
70074;DHT22;57445;51.058;3.698;2022-08-01T06:03:46;21.30;86.90
70074;DHT22;57445;51.058;3.698;2022-08-01T06:06:13;22.00;85.80
70074;DHT22;57445;51.058;3.698;2022-08-01T06:08:40;22.60;83.50
70074;DHT22;57445;51.058;3.698;2022-08-01T06:11:09;22.70;80.50
70074;DHT22;57445;51.058;3.698;2022-08-01T06:13:36;22.50;81.60
70074;DHT22;57445;51.058;3.698;2022-08-01T06:16:03;22.60;80.60
70074;DHT22;57445;51.058;3.698;2022-08-01T06:18:30;22.80;81.20
70074;DHT22;57445;51.058;3.698;2022-08-01T06:20:57;22.30;80.50
70074;DHT22;57445;51.058;3.698;2022-08-01T06:23:24;21.70;83.90
70074;DHT22;57445;51.058;3.698;2022-08-01T06:25:52;21.70;84.70
70074;DHT22;57445;51.058;3.698;2022-08-01T06:28:21;22.00;82.20
70074;DHT22;57445;51.058;3.698;2022-08-01T06:30:48;22.10;82.00
70074;DHT22;57445;51.058;3.698;2022-08-01T06:33:15;21.90;82.30
70074;DHT22;57445;51.058;3.698;2022-08-01T06:35:42;21.70;83.20
70074;DHT22;57445;51.058;3.698;2022-08-01T06:38:09;21.90;82.80
70074;DHT22;57445;51.058;3.698;2022-08-01T06:40:36;21.60;83.40
70074;DHT22;57445;51.058;3.698;2022-08-01T06:43:04;21.50;83.70
70074;DHT22;57445;51.058;3.698;2022-08-01T06:45:32;21.90;82.70
70074;DHT22;57445;51.058;3.698;2022-08-01T06:47:59;21.90;82.50
70074;DHT22;57445;51.058;3.698;2022-08-01T06:50:25;21.50;83.70
70074;DHT22;57445;51.058;3.698;2022-08-01T06:52:52;21.40;84.70
70074;DHT22;57445;51.058;3.698;2022-08-01T06:55:19;21.60;84.00
70074;DHT22;57445;51.058;3.698;2022-08-01T06:57:47;21.60;83.40
70074;DHT22;57445;51.058;3.698;2022-08-01T07:00:15;21.40;84.00
70074;DHT22;57445;51.058;3.698;2022-08-01T07:02:45;21.40;84.50
70074;DHT22;57445;51.058;3.698;2022-08-01T07:05:12;21.60;82.80
70074;DHT22;57445;51.058;3.698;2022-08-01T07:07:39;21.70;82.50
70074;DHT22;57445;51.058;3.698;2022-08-01T07:10:07;22.10;81.60
70074;DHT22;57445;51.058;3.698;2022-08-01T07:12:35;21.70;81.00
70074;DHT22;57445;51.058;3.698;2022-08-01T07:15:04;21.70;81.10
70074;DHT22;57445;51.058;3.698;2022-08-01T07:17:31;21.90;80.80
70074;DHT22;57445;51.058;3.698;2022-08-01T07:19:59;21.90;79.20
70074;DHT22;57445;51.058;3.698;2022-08-01T07:22:26;22.00;78.70
70074;DHT22;57445;51.058;3.698;2022-08-01T07:24:53;22.10;78.10
70074;DHT22;57445;51.058;3.698;2022-08-01T07:27:20;22.10;77.90
70074;DHT22;57445;51.058;3.698;2022-08-01T07:29:47;21.90;78.10
70074;DHT22;57445;51.058;3.698;2022-08-01T07:32:14;21.60;77.90
70074;DHT22;57445;51.058;3.698;2022-08-01T07:34:40;21.80;77.70
70074;DHT22;57445;51.058;3.698;2022-08-01T07:37:09;21.90;76.80
70074;DHT22;57445;51.058;3.698;2022-08-01T07:39:35;21.70;76.70
70074;DHT22;57445;51.058;3.698;2022-08-01T07:42:02;21.80;76.80
70074;DHT22;57445;51.058;3.698;2022-08-01T07:44:29;22.20;76.20
70074;DHT22;57445;51.058;3.698;2022-08-01T07:46:56;22.60;74.70
70074;DHT22;57445;51.058;3.698;2022-08-01T07:49:23;22.20;76.30
70074;DHT22;57445;51.058;3.698;2022-08-01T07:51:50;22.00;77.20
70074;DHT22;57445;51.058;3.698;2022-08-01T07:54:18;22.10;76.50
70074;DHT22;57445;51.058;3.698;2022-08-01T07:56:45;22.20;76.30
70074;DHT22;57445;51.058;3.698;2022-08-01T07:59:12;22.40;75.70
70074;DHT22;57445;51.058;3.698;2022-08-01T08:01:39;22.50;74.70
70074;DHT22;57445;51.058;3.698;2022-08-01T08:04:07;22.60;74.40
70074;DHT22;57445;51.058;3.698;2022-08-01T08:06:33;22.50;74.40
70074;DHT22;57445;51.058;3.698;2022-08-01T08:09:00;22.60;74.70
70074;DHT22;57445;51.058;3.698;2022-08-01T08:11:29;22.50;75.10
70074;DHT22;57445;51.058;3.698;2022-08-01T08:13:55;22.50;74.10
70074;DHT22;57445;51.058;3.698;2022-08-01T08:16:23;22.40;74.50
70074;DHT22;57445;51.058;3.698;2022-08-01T08:18:50;22.50;74.00
70074;DHT22;57445;51.058;3.698;2022-08-01T08:21:17;22.40;74.30
70074;DHT22;57445;51.058;3.698;2022-08-01T08:23:43;22.20;74.70
70074;DHT22;57445;51.058;3.698;2022-08-01T08:26:29;22.70;73.40
70074;DHT22;57445;51.058;3.698;2022-08-01T08:28:56;23.30;71.90
70074;DHT22;57445;51.058;3.698;2022-08-01T08:31:23;23.30;71.20
70074;DHT22;57445;51.058;3.698;2022-08-01T08:33:50;23.20;71.90
70074;DHT22;57445;51.058;3.698;2022-08-01T08:36:17;23.80;69.50
70074;DHT22;57445;51.058;3.698;2022-08-01T08:38:44;24.40;68.00
70074;DHT22;57445;51.058;3.698;2022-08-01T08:41:11;24.30;68.10
70074;DHT22;57445;51.058;3.698;2022-08-01T08:43:40;23.50;70.80
70074;DHT22;57445;51.058;3.698;2022-08-01T08:46:08;23.30;71.10
70074;DHT22;57445;51.058;3.698;2022-08-01T08:48:36;23.50;70.50
70074;DHT22;57445;51.058;3.698;2022-08-01T08:51:04;24.10;68.70
70074;DHT22;57445;51.058;3.698;2022-08-01T08:53:31;24.40;66.70
70074;DHT22;57445;51.058;3.698;2022-08-01T08:55:59;24.50;67.10
70074;DHT22;57445;51.058;3.698;2022-08-01T08:58:27;24.60;65.90
70074;DHT22;57445;51.058;3.698;2022-08-01T09:00:56;24.70;67.30
70074;DHT22;57445;51.058;3.698;2022-08-01T09:03:23;25.30;64.60
70074;DHT22;57445;51.058;3.698;2022-08-01T09:05:49;25.60;63.80
70074;DHT22;57445;51.058;3.698;2022-08-01T09:08:16;25.80;62.40
70074;DHT22;57445;51.058;3.698;2022-08-01T09:10:43;25.90;62.00
70074;DHT22;57445;51.058;3.698;2022-08-01T09:13:11;25.80;61.60
70074;DHT22;57445;51.058;3.698;2022-08-01T09:15:40;25.40;63.00
70074;DHT22;57445;51.058;3.698;2022-08-01T09:18:26;25.10;63.60
70074;DHT22;57445;51.058;3.698;2022-08-01T09:21:11;24.50;65.60
70074;DHT22;57445;51.058;3.698;2022-08-01T09:23:41;24.80;64.90
70074;DHT22;57445;51.058;3.698;2022-08-01T09:26:09;25.70;61.80
70074;DHT22;57445;51.058;3.698;2022-08-01T09:28:37;25.30;62.20
70074;DHT22;57445;51.058;3.698;2022-08-01T09:31:08;25.10;62.40
70074;DHT22;57445;51.058;3.698;2022-08-01T09:33:53;25.00;62.90
70074;DHT22;57445;51.058;3.698;2022-08-01T09:36:21;25.30;62.90
70074;DHT22;57445;51.058;3.698;2022-08-01T09:38:51;25.80;62.00
70074;DHT22;57445;51.058;3.698;2022-08-01T09:41:28;25.90;61.00
70074;DHT22;57445;51.058;3.698;2022-08-01T09:43:55;26.20;60.50
70074;DHT22;57445;51.058;3.698;2022-08-01T09:46:22;25.90;60.10
70074;DHT22;57445;51.058;3.698;2022-08-01T09:49:01;25.40;62.50
70074;DHT22;57445;51.058;3.698;2022-08-01T09:51:29;25.70;62.60
70074;DHT22;57445;51.058;3.698;2022-08-01T09:53:57;25.90;61.30
70074;DHT22;57445;51.058;3.698;2022-08-01T09:56:25;25.30;62.80
70074;DHT22;57445;51.058;3.698;2022-08-01T09:58:56;25.10;63.60
70074;DHT22;57445;51.058;3.698;2022-08-01T10:01:24;25.40;63.50
70074;DHT22;57445;51.058;3.698;2022-08-01T10:04:09;26.20;61.30
70074;DHT22;57445;51.058;3.698;2022-08-01T10:06:37;26.20;60.80
70074;DHT22;57445;51.058;3.698;2022-08-01T10:09:04;26.80;60.10
70074;DHT22;57445;51.058;3.698;2022-08-01T10:11:31;27.50;58.20
70074;DHT22;57445;51.058;3.698;2022-08-01T10:13:59;27.50;58.40
70074;DHT22;57445;51.058;3.698;2022-08-01T10:16:28;27.70;57.90
70074;DHT22;57445;51.058;3.698;2022-08-01T10:18:57;27.30;58.30
70074;DHT22;57445;51.058;3.698;2022-08-01T10:21:26;25.90;61.20
70074;DHT22;57445;51.058;3.698;2022-08-01T10:23:54;25.20;63.70
70074;DHT22;57445;51.058;3.698;2022-08-01T10:26:24;25.30;63.20
70074;DHT22;57445;51.058;3.698;2022-08-01T10:28:52;25.00;64.40
70074;DHT22;57445;51.058;3.698;2022-08-01T10:31:20;25.50;63.40
70074;DHT22;57445;51.058;3.698;2022-08-01T10:33:49;26.00;61.90
70074;DHT22;57445;51.058;3.698;2022-08-01T10:36:18;26.10;60.90
70074;DHT22;57445;51.058;3.698;2022-08-01T10:38:47;25.60;62.30
70074;DHT22;57445;51.058;3.698;2022-08-01T10:41:15;25.90;61.10
70074;DHT22;57445;51.058;3.698;2022-08-01T10:43:42;26.40;60.40
70074;DHT22;57445;51.058;3.698;2022-08-01T10:46:10;26.70;59.50
70074;DHT22;57445;51.058;3.698;2022-08-01T10:48:43;27.40;57.70
70074;DHT22;57445;51.058;3.698;2022-08-01T10:51:12;26.80;57.70
70074;DHT22;57445;51.058;3.698;2022-08-01T10:53:47;26.50;59.20
70074;DHT22;57445;51.058;3.698;2022-08-01T10:56:14;26.40;59.20
70074;DHT22;57445;51.058;3.698;2022-08-01T10:58:43;25.80;60.10
70074;DHT22;57445;51.058;3.698;2022-08-01T11:01:23;26.00;60.50
70074;DHT22;57445;51.058;3.698;2022-08-01T11:04:01;25.20;60.90
70074;DHT22;57445;51.058;3.698;2022-08-01T11:06:42;25.40;61.10
70074;DHT22;57445;51.058;3.698;2022-08-01T11:09:26;25.10;61.20
70074;DHT22;57445;51.058;3.698;2022-08-01T11:11:58;25.30;61.30
70074;DHT22;57445;51.058;3.698;2022-08-01T11:14:25;25.70;59.90
70074;DHT22;57445;51.058;3.698;2022-08-01T11:16:52;26.60;57.90
70074;DHT22;57445;51.058;3.698;2022-08-01T11:19:19;26.90;56.70
70074;DHT22;57445;51.058;3.698;2022-08-01T11:21:59;26.70;57.50
70074;DHT22;57445;51.058;3.698;2022-08-01T11:24:56;26.00;58.10
70074;DHT22;57445;51.058;3.698;2022-08-01T11:27:26;25.80;58.90
70074;DHT22;57445;51.058;3.698;2022-08-01T11:30:22;25.90;58.60
70074;DHT22;57445;51.058;3.698;2022-08-01T11:32:52;26.50;57.50
70074;DHT22;57445;51.058;3.698;2022-08-01T11:35:19;27.10;55.30
70074;DHT22;57445;51.058;3.698;2022-08-01T11:37:49;27.30;54.80
70074;DHT22;57445;51.058;3.698;2022-08-01T11:40:23;27.80;54.20
70074;DHT22;57445;51.058;3.698;2022-08-01T11:43:16;27.50;54.70
70074;DHT22;57445;51.058;3.698;2022-08-01T11:45:47;27.10;55.40
70074;DHT22;57445;51.058;3.698;2022-08-01T11:48:18;27.50;54.20
70074;DHT22;57445;51.058;3.698;2022-08-01T11:50:45;27.40;54.60
70074;DHT22;57445;51.058;3.698;2022-08-01T11:53:12;27.00;54.80
70074;DHT22;57445;51.058;3.698;2022-08-01T11:55:46;26.40;56.00
70074;DHT22;57445;51.058;3.698;2022-08-01T11:58:15;26.50;54.10
70074;DHT22;57445;51.058;3.698;2022-08-01T12:00:50;26.60;54.70
70074;DHT22;57445;51.058;3.698;2022-08-01T12:03:23;27.20;54.30
70074;DHT22;57445;51.058;3.698;2022-08-01T12:05:51;27.20;54.00
70074;DHT22;57445;51.058;3.698;2022-08-01T12:08:24;27.20;53.70
70074;DHT22;57445;51.058;3.698;2022-08-01T12:10:53;27.40;52.90
70074;DHT22;57445;51.058;3.698;2022-08-01T12:13:20;27.60;51.90
70074;DHT22;57445;51.058;3.698;2022-08-01T12:15:48;28.70;50.80
70074;DHT22;57445;51.058;3.698;2022-08-01T12:18:16;28.80;50.00
70074;DHT22;57445;51.058;3.698;2022-08-01T12:20:45;28.10;50.40
70074;DHT22;57445;51.058;3.698;2022-08-01T12:23:15;28.10;50.70
70074;DHT22;57445;51.058;3.698;2022-08-01T12:25:42;28.30;49.80
70074;DHT22;57445;51.058;3.698;2022-08-01T12:28:12;28.10;50.30
70074;DHT22;57445;51.058;3.698;2022-08-01T12:30:39;28.40;50.50
70074;DHT22;57445;51.058;3.698;2022-08-01T12:33:08;28.70;50.90
70074;DHT22;57445;51.058;3.698;2022-08-01T12:35:38;28.30;51.70
70074;DHT22;57445;51.058;3.698;2022-08-01T12:38:13;27.40;53.90
70074;DHT22;57445;51.058;3.698;2022-08-01T12:40:43;27.70;52.40
70074;DHT22;57445;51.058;3.698;2022-08-01T12:43:15;27.80;51.80
70074;DHT22;57445;51.058;3.698;2022-08-01T12:45:44;28.00;50.80
70074;DHT22;57445;51.058;3.698;2022-08-01T12:48:13;27.70;51.60
70074;DHT22;57445;51.058;3.698;2022-08-01T12:50:42;27.20;51.90
70074;DHT22;57445;51.058;3.698;2022-08-01T12:53:10;27.10;53.60
70074;DHT22;57445;51.058;3.698;2022-08-01T12:55:44;27.80;51.70
70074;DHT22;57445;51.058;3.698;2022-08-01T12:58:15;27.50;52.60
70074;DHT22;57445;51.058;3.698;2022-08-01T13:00:44;27.80;52.70
70074;DHT22;57445;51.058;3.698;2022-08-01T13:03:14;28.10;51.10
70074;DHT22;57445;51.058;3.698;2022-08-01T13:05:46;27.80;51.50
70074;DHT22;57445;51.058;3.698;2022-08-01T13:08:14;27.70;51.80
70074;DHT22;57445;51.058;3.698;2022-08-01T13:10:42;27.10;52.30
70074;DHT22;57445;51.058;3.698;2022-08-01T13:13:10;26.90;52.00
70074;DHT22;57445;51.058;3.698;2022-08-01T13:15:40;26.60;52.70
70074;DHT22;57445;51.058;3.698;2022-08-01T13:18:25;26.70;52.70
70074;DHT22;57445;51.058;3.698;2022-08-01T13:21:07;26.30;53.60
70074;DHT22;57445;51.058;3.698;2022-08-01T13:23:35;26.60;52.00
70074;DHT22;57445;51.058;3.698;2022-08-01T13:26:03;26.60;51.60
70074;DHT22;57445;51.058;3.698;2022-08-01T13:28:30;26.50;52.20
70074;DHT22;57445;51.058;3.698;2022-08-01T13:31:01;27.00;50.70
70074;DHT22;57445;51.058;3.698;2022-08-01T13:33:40;27.10;49.70
70074;DHT22;57445;51.058;3.698;2022-08-01T13:36:07;26.80;50.40
70074;DHT22;57445;51.058;3.698;2022-08-01T13:38:34;26.90;50.10
70074;DHT22;57445;51.058;3.698;2022-08-01T13:41:19;27.00;48.70
70074;DHT22;57445;51.058;3.698;2022-08-01T13:43:45;27.10;49.00
70074;DHT22;57445;51.058;3.698;2022-08-01T13:46:14;27.20;47.30
70074;DHT22;57445;51.058;3.698;2022-08-01T13:48:41;27.00;47.10
70074;DHT22;57445;51.058;3.698;2022-08-01T13:51:08;26.80;50.20
70074;DHT22;57445;51.058;3.698;2022-08-01T13:53:35;27.10;49.10
70074;DHT22;57445;51.058;3.698;2022-08-01T13:56:02;26.80;50.00
70074;DHT22;57445;51.058;3.698;2022-08-01T13:58:29;26.80;50.00
70074;DHT22;57445;51.058;3.698;2022-08-01T14:00:56;27.00;49.90
70074;DHT22;57445;51.058;3.698;2022-08-01T14:03:25;27.20;49.30
70074;DHT22;57445;51.058;3.698;2022-08-01T14:05:52;27.50;48.60
70074;DHT22;57445;51.058;3.698;2022-08-01T14:08:19;28.10;47.00
70074;DHT22;57445;51.058;3.698;2022-08-01T14:10:46;28.50;46.10
70074;DHT22;57445;51.058;3.698;2022-08-01T14:13:13;28.30;46.20
70074;DHT22;57445;51.058;3.698;2022-08-01T14:15:40;28.10;46.30
70074;DHT22;57445;51.058;3.698;2022-08-01T14:18:07;28.20;46.20
70074;DHT22;57445;51.058;3.698;2022-08-01T14:20:36;28.00;46.90
70074;DHT22;57445;51.058;3.698;2022-08-01T14:23:03;27.80;46.80
70074;DHT22;57445;51.058;3.698;2022-08-01T14:25:30;28.00;46.10
70074;DHT22;57445;51.058;3.698;2022-08-01T14:27:57;28.70;45.50
70074;DHT22;57445;51.058;3.698;2022-08-01T14:30:24;28.40;45.00
70074;DHT22;57445;51.058;3.698;2022-08-01T14:32:52;28.70;44.70
70074;DHT22;57445;51.058;3.698;2022-08-01T14:35:18;27.80;45.70
70074;DHT22;57445;51.058;3.698;2022-08-01T14:37:47;27.50;46.70
70074;DHT22;57445;51.058;3.698;2022-08-01T14:40:13;27.50;46.60
70074;DHT22;57445;51.058;3.698;2022-08-01T14:42:40;26.90;48.30
70074;DHT22;57445;51.058;3.698;2022-08-01T14:45:11;26.80;48.60
70074;DHT22;57445;51.058;3.698;2022-08-01T14:47:39;26.50;49.10
70074;DHT22;57445;51.058;3.698;2022-08-01T14:50:08;26.80;48.60
70074;DHT22;57445;51.058;3.698;2022-08-01T14:52:37;26.80;48.40
70074;DHT22;57445;51.058;3.698;2022-08-01T14:55:08;26.80;49.10
70074;DHT22;57445;51.058;3.698;2022-08-01T14:57:36;26.60;48.60
70074;DHT22;57445;51.058;3.698;2022-08-01T15:00:06;26.50;48.40
70074;DHT22;57445;51.058;3.698;2022-08-01T15:02:34;26.30;48.50
70074;DHT22;57445;51.058;3.698;2022-08-01T15:05:01;26.60;47.50
70074;DHT22;57445;51.058;3.698;2022-08-01T15:07:28;26.50;48.10
70074;DHT22;57445;51.058;3.698;2022-08-01T15:09:54;26.60;47.80
70074;DHT22;57445;51.058;3.698;2022-08-01T15:12:23;26.60;47.50
70074;DHT22;57445;51.058;3.698;2022-08-01T15:14:50;26.50;47.10
70074;DHT22;57445;51.058;3.698;2022-08-01T15:17:18;26.80;46.30
70074;DHT22;57445;51.058;3.698;2022-08-01T15:19:46;27.10;45.60
70074;DHT22;57445;51.058;3.698;2022-08-01T15:22:14;27.20;45.70
70074;DHT22;57445;51.058;3.698;2022-08-01T15:24:41;27.50;44.90
70074;DHT22;57445;51.058;3.698;2022-08-01T15:27:08;27.20;45.50
70074;DHT22;57445;51.058;3.698;2022-08-01T15:29:37;27.20;45.60
70074;DHT22;57445;51.058;3.698;2022-08-01T15:32:05;27.00;45.90
70074;DHT22;57445;51.058;3.698;2022-08-01T15:34:33;26.70;46.50
70074;DHT22;57445;51.058;3.698;2022-08-01T15:37:00;27.10;45.90
70074;DHT22;57445;51.058;3.698;2022-08-01T15:39:29;27.40;45.30
70074;DHT22;57445;51.058;3.698;2022-08-01T15:41:58;27.30;45.20